Time;durP1;ratioP1;P1;durP2;ratioP2;P2;SDS_P1;SDS_P2;PMS_P1;PMS_P2;Temp;Humidity;BMP_temperature;BMP_pressure;BME280_temperature;BME280_humidity;BME280_pressure;Samples;Min_cycle;Max_cycle;Signal;HPM_P1;HPM_P2
2021/03/02 00:01:55;;;;;;;6.05;3.92;;;6.90;67.40;;;;;;6098882;23;20864;-79
2021/03/02 00:04:22;;;;;;;7.07;4.33;;;6.70;67.40;;;;;;6127409;23;20483;-79
2021/03/02 00:06:49;;;;;;;8.13;3.80;;;6.70;67.50;;;;;;6128385;23;20465;-79
2021/03/02 00:09:16;;;;;;;6.90;4.53;;;6.60;67.70;;;;;;6154601;23;20382;-79
2021/03/02 00:11:43;;;;;;;6.30;3.90;;;6.50;68.10;;;;;;6154575;23;20875;-78
2021/03/02 00:14:09;;;;;;;6.43;3.70;;;6.40;68.80;;;;;;6128520;23;20379;-80
2021/03/02 00:16:42;;;;;;;7.30;3.55;;;6.40;68.90;;;;;;6154562;23;20494;-79
2021/03/02 00:19:12;;;;;;;7.27;4.67;;;6.60;68.30;;;;;;6128372;23;20422;-79
2021/03/02 00:21:42;;;;;;;8.10;5.60;;;6.90;68.80;;;;;;6128776;23;20410;-79
2021/03/02 00:24:10;;;;;;;7.45;5.70;;;6.70;70.30;;;;;;6128170;23;20410;-79
2021/03/02 00:26:41;;;;;;;8.75;5.80;;;6.40;72.30;;;;;;6128533;23;20383;-79
2021/03/02 00:29:10;;;;;;;8.30;5.10;;;6.20;72.40;;;;;;6128440;23;20383;-79
2021/03/02 00:31:40;;;;;;;6.10;4.10;;;6.00;72.40;;;;;;6128556;23;20850;-79
2021/03/02 00:34:06;;;;;;;6.30;3.90;;;6.00;71.40;;;;;;6128567;23;20382;-79
2021/03/02 00:36:32;;;;;;;5.83;3.80;;;6.00;71.30;;;;;;6128363;23;20397;-79
2021/03/02 00:38:57;;;;;;;6.07;3.63;;;6.00;70.90;;;;;;6128331;23;20390;-79
2021/03/02 00:41:23;;;;;;;6.78;4.50;;;6.00;70.30;;;;;;6128393;23;20854;-79
2021/03/02 00:43:53;;;;;;;6.80;4.17;;;6.00;70.30;;;;;;6128313;23;20462;-79
2021/03/02 00:46:19;;;;;;;6.80;3.70;;;5.80;70.30;;;;;;6128577;23;20383;-79
2021/03/02 00:48:46;;;;;;;5.55;3.63;;;5.90;70.00;;;;;;6128182;23;20375;-79
2021/03/02 00:51:12;;;;;;;4.78;3.25;;;6.20;68.10;;;;;;6154700;23;20883;-79
2021/03/02 00:53:38;;;;;;;5.32;2.88;;;6.50;67.20;;;;;;6155396;23;20385;-79
2021/03/02 00:56:04;;;;;;;6.60;3.65;;;6.60;66.50;;;;;;6128856;23;20391;-78
2021/03/02 00:58:30;;;;;;;5.93;3.35;;;6.80;66.00;;;;;;6130401;23;20482;-78
2021/03/02 01:00:56;;;;;;;6.50;3.38;;;7.20;64.10;;;;;;6131212;23;20748;-79
2021/03/02 01:03:22;;;;;;;7.03;4.75;;;7.20;63.90;;;;;;6125428;23;20396;-79
2021/03/02 01:05:49;;;;;;;6.88;4.90;;;7.30;65.80;;;;;;6126322;23;20702;-79
2021/03/02 01:08:15;;;;;;;9.38;6.00;;;7.10;65.30;;;;;;6126365;23;20943;-80
2021/03/02 01:10:41;;;;;;;10.10;5.75;;;6.80;66.60;;;;;;6128562;23;20457;-79
2021/03/02 01:13:08;;;;;;;9.57;6.37;;;;;;;;;;6127404;23;20466;-79
2021/03/02 01:15:33;;;;;;;7.53;4.95;;;6.40;67.20;;;;;;6125898;23;20380;-78
2021/03/02 01:18:00;;;;;;;7.75;5.00;;;5.60;69.80;;;;;;6127268;23;20411;-79
2021/03/02 01:20:26;;;;;;;9.00;5.95;;;;;;;;;;6126654;23;20388;-79
2021/03/02 01:22:53;;;;;;;7.97;4.95;;;;;;;;;;6125134;23;20661;-79
2021/03/02 01:25:21;;;;;;;6.00;3.72;;;;;;;;;;6124757;23;20377;-79
2021/03/02 01:27:47;;;;;;;5.18;3.33;;;;;;;;;;6124916;23;20440;-79
2021/03/02 01:30:14;;;;;;;5.57;3.03;;;;;;;;;;6126292;23;20677;-79
2021/03/02 01:32:41;;;;;;;6.18;3.30;;;;;;;;;;6124815;23;20372;-79
2021/03/02 01:35:08;;;;;;;6.60;3.60;;;;;;;;;;6124748;23;20439;-79
2021/03/02 01:37:34;;;;;;;4.75;2.90;;;;;;;;;;6125101;23;20373;-79
2021/03/02 01:40:01;;;;;;;4.93;2.72;;;;;;;;;;6124761;23;20369;-79
2021/03/02 01:42:27;;;;;;;7.30;4.63;;;;;;;;;;6124517;23;20889;-79
2021/03/02 01:44:53;;;;;;;7.30;4.57;;;;;;;;;;6124645;23;20852;-79
2021/03/02 01:47:19;;;;;;;5.80;3.73;;;5.60;68.80;;;;;;6124550;23;20405;-79
2021/03/02 01:49:45;;;;;;;7.38;4.82;;;;;;;;;;6124681;23;20829;-80
2021/03/02 01:52:11;;;;;;;5.72;4.10;;;6.70;63.70;;;;;;6124731;23;20367;-79
2021/03/02 01:54:38;;;;;;;4.80;3.40;;;;;;;;;;6124426;23;20849;-78
2021/03/02 01:57:05;;;;;;;5.63;3.15;;;;;;;;;;6124553;23;20380;-79
2021/03/02 01:59:31;;;;;;;4.75;2.80;;;5.80;64.90;;;;;;6124416;23;20853;-79
2021/03/02 02:02:01;;;;;;;5.90;2.85;;;6.30;65.10;;;;;;6124132;23;20416;-78
2021/03/02 02:04:33;;;;;;;5.73;3.00;;;;;;;;;;6125812;23;20409;-79
2021/03/02 02:07:02;;;;;;;6.25;3.35;;;;;;;;;;6100127;23;20702;-78
2021/03/02 02:09:30;;;;;;;5.68;3.47;;;;;;;;;;6099297;23;20840;-79
2021/03/02 02:12:01;;;;;;;5.75;3.58;;;;;;;;;;6099679;23;20369;-79
2021/03/02 02:14:40;;;;;;;6.05;2.85;;;6.50;63.30;;;;;;6100440;23;20384;-79
2021/03/02 02:17:14;;;;;;;8.10;3.22;;;6.60;63.20;;;;;;6099732;23;20380;-78
2021/03/02 02:19:45;;;;;;;8.38;3.45;;;7.00;61.80;;;;;;6099962;23;20701;-79
2021/03/02 02:22:14;;;;;;;6.40;3.05;;;;;;;;;;6100004;23;20468;-78
2021/03/02 02:25:04;;;;;;;5.43;3.07;;;7.30;60.70;;;;;;6099953;23;20642;-79
2021/03/02 02:27:32;;;;;;;6.70;2.50;;;7.90;59.10;;;;;;6099893;23;20384;-79
2021/03/02 02:29:59;;;;;;;5.90;3.17;;;8.10;58.50;;;;;;6099697;23;20927;-79
2021/03/02 02:32:28;;;;;;;7.07;2.70;;;8.10;58.40;;;;;;6099615;23;20833;-78
2021/03/02 02:34:57;;;;;;;5.87;2.67;;;7.90;58.00;;;;;;6125808;23;20717;-79
2021/03/02 02:37:25;;;;;;;6.88;2.85;;;8.10;57.30;;;;;;6099722;23;20381;-78
2021/03/02 02:39:52;;;;;;;5.80;2.78;;;8.20;57.70;;;;;;6099992;23;20377;-78
2021/03/02 02:42:19;;;;;;;4.13;2.75;;;8.40;54.40;;;;;;6125847;23;20356;-79
2021/03/02 02:44:48;;;;;;;4.28;2.42;;;8.40;54.10;;;;;;6099623;23;20376;-79
2021/03/02 02:47:15;;;;;;;5.80;2.85;;;8.20;54.90;;;;;;6099829;23;20384;-79
2021/03/02 02:49:43;;;;;;;6.25;2.50;;;8.00;55.80;;;;;;6100575;23;20377;-79
2021/03/02 02:52:12;;;;;;;8.68;2.90;;;7.90;56.00;;;;;;6099820;23;20679;-79
2021/03/02 02:54:38;;;;;;;5.32;3.03;;;7.90;56.80;;;;;;6125525;23;20391;-79
2021/03/02 02:57:05;;;;;;;6.97;2.70;;;8.00;55.90;;;;;;6099579;23;20728;-79
2021/03/02 02:59:34;;;;;;;5.47;2.80;;;8.10;55.70;;;;;;6099460;23;20383;-78
2021/03/02 03:02:03;;;;;;;5.25;2.55;;;8.30;55.10;;;;;;6099298;23;20391;-78
2021/03/02 03:04:35;;;;;;;7.68;3.53;;;8.30;55.30;;;;;;6099518;23;20369;-79
2021/03/02 03:07:04;;;;;;;4.78;2.42;;;8.40;55.30;;;;;;6099591;23;20837;-78
2021/03/02 03:09:31;;;;;;;4.90;3.10;;;8.40;55.40;;;;;;6099388;23;20385;-79
2021/03/02 03:12:00;;;;;;;4.40;2.85;;;8.50;55.10;;;;;;6099376;23;20715;-79
2021/03/02 03:14:28;;;;;;;6.10;3.05;;;8.40;54.70;;;;;;6099395;23;20425;-78
2021/03/02 03:16:57;;;;;;;5.90;2.58;;;8.10;55.20;;;;;;6099427;23;20377;-79
2021/03/02 03:19:26;;;;;;;5.80;2.67;;;7.80;55.80;;;;;;6099349;23;20861;-79
2021/03/02 03:21:52;;;;;;;4.60;2.55;;;8.00;55.30;;;;;;6099188;23;20388;-78
2021/03/02 03:24:19;;;;;;;4.25;2.47;;;8.00;54.70;;;;;;6099493;23;20404;-78
2021/03/02 03:26:46;;;;;;;5.50;2.70;;;8.10;54.90;;;;;;6099468;23;20789;-79
2021/03/02 03:29:14;;;;;;;5.05;2.38;;;8.10;54.30;;;;;;6099410;23;20852;-79
2021/03/02 03:31:40;;;;;;;4.80;2.42;;;8.10;54.00;;;;;;6100121;23;20419;-82
2021/03/02 03:34:07;;;;;;;6.30;2.80;;;8.10;54.60;;;;;;6099517;23;20387;-83
2021/03/02 03:36:37;;;;;;;4.68;2.72;;;8.30;53.70;;;;;;6099689;23;20387;-82
2021/03/02 03:39:03;;;;;;;5.38;2.85;;;8.30;54.00;;;;;;6099509;23;20430;-82
2021/03/02 03:41:29;;;;;;;4.88;2.55;;;8.40;54.30;;;;;;6100337;23;20733;-79
2021/03/02 03:43:55;;;;;;;3.92;2.47;;;8.40;53.90;;;;;;6099488;23;20833;-79
2021/03/02 03:46:21;;;;;;;5.22;2.78;;;8.20;54.40;;;;;;6099284;23;20373;-79
2021/03/02 03:48:47;;;;;;;6.37;2.93;;;8.20;53.90;;;;;;6099252;23;20837;-79
2021/03/02 03:51:14;;;;;;;3.83;2.40;;;8.00;54.50;;;;;;6099230;23;20388;-79
2021/03/02 03:53:42;;;;;;;5.30;3.03;;;7.90;54.00;;;;;;6099632;23;20852;-80
2021/03/02 03:56:10;;;;;;;4.25;2.13;;;7.80;55.30;;;;;;6099190;23;20396;-79
2021/03/02 03:58:38;;;;;;;4.97;2.90;;;7.70;54.30;;;;;;6099445;23;20391;-79
2021/03/02 04:01:06;;;;;;;4.18;2.40;;;7.60;54.10;;;;;;6100229;23;20388;-79
2021/03/02 04:03:34;;;;;;;4.32;2.30;;;7.70;54.00;;;;;;6113362;23;20456;-79
2021/03/02 04:06:01;;;;;;;4.80;2.40;;;7.90;53.60;;;;;;6123594;23;20377;-79
2021/03/02 04:08:27;;;;;;;4.43;2.07;;;7.90;53.20;;;;;;6123512;23;20384;-79
2021/03/02 04:10:55;;;;;;;3.97;2.23;;;8.10;53.00;;;;;;6123429;23;20432;-79
2021/03/02 04:13:21;;;;;;;3.83;2.38;;;8.20;54.30;;;;;;6123586;23;20438;-78
2021/03/02 04:15:47;;;;;;;4.72;2.72;;;8.20;52.90;;;;;;6123383;23;20415;-78
2021/03/02 04:18:15;;;;;;;5.60;2.33;;;8.20;52.70;;;;;;6123743;23;20381;-78
2021/03/02 04:20:42;;;;;;;3.72;2.35;;;8.20;53.40;;;;;;6123610;23;20381;-78
2021/03/02 04:23:08;;;;;;;4.25;2.60;;;8.10;53.20;;;;;;6125181;23;20848;-79
2021/03/02 04:25:34;;;;;;;3.67;2.20;;;8.10;54.00;;;;;;6123452;23;20412;-79
2021/03/02 04:28:03;;;;;;;4.00;2.05;;;8.20;53.00;;;;;;6123616;23;20384;-79
2021/03/02 04:30:29;;;;;;;4.10;2.15;;;8.30;51.80;;;;;;6123427;23;20385;-79
2021/03/02 04:32:55;;;;;;;4.78;2.38;;;8.40;51.50;;;;;;6124459;23;20388;-79
2021/03/02 04:35:22;;;;;;;3.83;2.10;;;8.50;51.70;;;;;;6125220;23;20460;-79
2021/03/02 04:37:48;;;;;;;7.30;2.53;;;8.50;51.40;;;;;;6125154;23;20840;-79
2021/03/02 04:40:14;;;;;;;4.00;2.00;;;8.30;51.80;;;;;;6125188;23;20380;-79
2021/03/02 04:42:41;;;;;;;5.93;2.10;;;8.30;52.10;;;;;;6125282;23;20381;-79
2021/03/02 04:45:10;;;;;;;4.20;2.13;;;8.20;52.20;;;;;;6125226;23;20376;-79
2021/03/02 04:47:38;;;;;;;4.30;2.30;;;8.50;51.50;;;;;;6125052;23;20887;-79
2021/03/02 04:50:05;;;;;;;6.38;2.53;;;8.60;51.30;;;;;;6125722;23;20390;-79
2021/03/02 04:52:31;;;;;;;5.80;2.40;;;8.50;50.30;;;;;;6125203;23;20852;-79
2021/03/02 04:54:57;;;;;;;4.40;2.30;;;8.60;50.50;;;;;;6124961;23;20396;-79
2021/03/02 04:57:24;;;;;;;2.97;1.98;;;8.50;51.00;;;;;;6126744;23;20367;-79
2021/03/02 04:59:50;;;;;;;3.40;2.17;;;8.60;50.80;;;;;;6125173;23;20872;-79
2021/03/02 05:02:17;;;;;;;2.75;1.77;;;8.60;50.60;;;;;;6124665;23;20427;-79
2021/03/02 05:04:43;;;;;;;5.33;2.50;;;8.50;51.00;;;;;;6100649;23;20900;-79
2021/03/02 05:07:09;;;;;;;5.80;2.65;;;8.40;51.10;;;;;;6100615;23;20384;-79
2021/03/02 05:09:35;;;;;;;5.65;2.55;;;8.30;51.20;;;;;;6126429;23;20689;-79
2021/03/02 05:12:01;;;;;;;6.57;2.40;;;8.40;51.10;;;;;;6100375;23;20381;-79
2021/03/02 05:14:27;;;;;;;4.38;2.25;;;8.40;51.30;;;;;;6124850;23;20384;-79
2021/03/02 05:16:54;;;;;;;4.15;2.30;;;8.30;51.50;;;;;;6119998;23;20384;-79
2021/03/02 05:19:20;;;;;;;4.40;2.15;;;8.20;52.20;;;;;;6114039;23;20444;-79
2021/03/02 05:21:46;;;;;;;3.15;1.95;;;8.00;52.80;;;;;;6100537;23;20385;-79
2021/03/02 05:24:13;;;;;;;4.47;2.00;;;8.00;52.30;;;;;;6100526;23;20377;-79
2021/03/02 05:26:39;;;;;;;3.42;1.98;;;8.00;52.10;;;;;;6100594;23;20479;-79
2021/03/02 05:29:09;;;;;;;3.88;2.15;;;8.10;52.50;;;;;;6100284;23;20708;-79
2021/03/02 05:31:35;;;;;;;3.92;2.13;;;8.10;51.90;;;;;;6100334;23;20895;-79
2021/03/02 05:34:01;;;;;;;3.88;1.85;;;8.10;52.50;;;;;;6100239;23;20904;-79
2021/03/02 05:36:28;;;;;;;3.15;2.08;;;8.00;52.10;;;;;;6100252;23;20717;-79
2021/03/02 05:38:54;;;;;;;4.47;2.17;;;7.80;53.40;;;;;;6100334;23;20387;-79
2021/03/02 05:41:21;;;;;;;5.85;2.70;;;7.60;53.60;;;;;;6100459;23;20387;-79
2021/03/02 05:43:47;;;;;;;4.72;2.55;;;7.50;53.60;;;;;;6100539;23;20387;-79
2021/03/02 05:46:13;;;;;;;3.23;1.93;;;7.40;53.40;;;;;;6100107;23;20373;-79
2021/03/02 05:48:41;;;;;;;3.90;2.15;;;7.40;52.90;;;;;;6100898;23;20385;-79
2021/03/02 05:51:08;;;;;;;3.70;2.30;;;;;;;;;;6126783;23;20444;-78
2021/03/02 05:53:38;;;;;;;3.13;2.20;;;7.30;53.40;;;;;;6101066;23;20372;-79
2021/03/02 05:56:06;;;;;;;3.58;1.90;;;7.20;54.10;;;;;;6100095;23;20396;-79
2021/03/02 05:58:33;;;;;;;3.88;2.25;;;7.20;53.80;;;;;;6100465;23;20891;-79
2021/03/02 06:00:59;;;;;;;5.10;1.88;;;7.30;53.50;;;;;;6100612;23;20790;-79
2021/03/02 06:03:25;;;;;;;6.28;2.60;;;7.40;52.80;;;;;;6118139;23;20402;-79
2021/03/02 06:05:53;;;;;;;4.20;3.00;;;7.30;52.90;;;;;;6129482;23;20375;-79
2021/03/02 06:08:19;;;;;;;6.25;2.72;;;7.30;53.80;;;;;;6129309;23;20835;-79
2021/03/02 06:10:46;;;;;;;3.38;2.10;;;7.20;53.00;;;;;;6129136;23;20433;-79
2021/03/02 06:13:12;;;;;;;5.38;1.90;;;7.20;53.90;;;;;;6130204;23;20725;-79
2021/03/02 06:15:53;;;;;;;3.20;2.20;;;7.40;52.70;;;;;;6128513;23;20383;-78
2021/03/02 06:18:20;;;;;;;3.60;1.90;;;7.60;52.20;;;;;;6128460;23;20453;-78
2021/03/02 06:20:47;;;;;;;3.63;2.10;;;7.70;51.70;;;;;;6128722;23;20417;-78
2021/03/02 06:23:23;;;;;;;3.50;1.67;;;7.70;52.50;;;;;;6129039;23;20850;-78
2021/03/02 06:25:51;;;;;;;2.87;2.00;;;7.70;52.10;;;;;;6128884;23;20700;-78
2021/03/02 06:28:36;;;;;;;4.18;2.15;;;7.80;51.70;;;;;;6129001;23;20462;-79
2021/03/02 06:31:02;;;;;;;5.25;2.00;;;7.80;52.10;;;;;;6127357;23;20855;-79
2021/03/02 06:33:29;;;;;;;4.30;2.00;;;7.90;51.60;;;;;;6128853;23;20426;-78
2021/03/02 06:35:55;;;;;;;3.28;2.08;;;7.90;51.40;;;;;;6128005;23;20417;-78
2021/03/02 06:38:29;;;;;;;4.83;2.47;;;7.80;52.30;;;;;;6128943;23;20736;-78
2021/03/02 06:40:56;;;;;;;5.22;2.25;;;7.80;53.20;;;;;;6128073;23;20382;-78
2021/03/02 06:43:33;;;;;;;3.72;2.58;;;7.70;52.20;;;;;;6154746;23;20366;-78
2021/03/02 06:46:00;;;;;;;5.22;2.38;;;7.50;53.20;;;;;;6128702;23;20386;-78
2021/03/02 06:48:26;;;;;;;3.45;2.13;;;7.50;52.70;;;;;;6128544;23;20794;-78
2021/03/02 06:50:53;;;;;;;4.13;2.25;;;7.60;52.50;;;;;;6128705;23;20860;-78
2021/03/02 06:53:20;;;;;;;4.30;2.47;;;7.70;51.80;;;;;;6128735;23;20450;-78
2021/03/02 06:55:46;;;;;;;3.35;2.40;;;7.70;52.90;;;;;;6128474;23;20708;-78
2021/03/02 06:58:22;;;;;;;3.77;2.17;;;7.60;52.70;;;;;;6128786;23;20375;-78
2021/03/02 07:00:50;;;;;;;3.42;2.38;;;7.60;52.70;;;;;;6128695;23;20422;-78
2021/03/02 07:03:22;;;;;;;3.92;2.00;;;7.70;52.40;;;;;;6139291;23;20380;-78
2021/03/02 07:05:48;;;;;;;3.22;2.10;;;7.90;51.40;;;;;;6099372;23;20379;-78
2021/03/02 07:08:14;;;;;;;4.05;2.20;;;8.00;50.30;;;;;;6099409;23;20439;-78
2021/03/02 07:10:42;;;;;;;4.38;2.05;;;8.10;50.80;;;;;;6099326;23;20377;-78
2021/03/02 07:13:10;;;;;;;4.88;2.08;;;8.10;51.10;;;;;;6099298;23;20381;-78
2021/03/02 07:15:41;;;;;;;4.80;2.40;;;8.10;51.50;;;;;;6125100;23;20841;-78
2021/03/02 07:18:09;;;;;;;4.18;2.63;;;8.10;52.00;;;;;;6099430;23;20435;-78
2021/03/02 07:20:36;;;;;;;5.88;2.90;;;8.00;52.20;;;;;;6099261;23;20384;-78
2021/03/02 07:23:05;;;;;;;5.25;2.42;;;8.10;51.50;;;;;;6099271;23;20376;-78
2021/03/02 07:25:36;;;;;;;5.13;2.55;;;8.10;51.30;;;;;;6099234;23;20377;-78
2021/03/02 07:28:05;;;;;;;3.58;2.53;;;8.20;51.80;;;;;;6099339;23;20811;-78
2021/03/02 07:30:30;;;;;;;5.32;2.53;;;8.20;51.80;;;;;;6099117;23;20745;-78
2021/03/02 07:32:58;;;;;;;3.33;2.15;;;8.20;52.00;;;;;;6099614;23;20475;-78
2021/03/02 07:35:25;;;;;;;4.78;2.47;;;8.40;51.50;;;;;;6098963;23;20393;-78
2021/03/02 07:37:51;;;;;;;5.47;2.20;;;8.40;51.70;;;;;;6099214;23;20429;-78
2021/03/02 07:40:19;;;;;;;4.70;2.30;;;8.50;51.60;;;;;;6099107;23;20377;-78
2021/03/02 07:42:45;;;;;;;5.53;2.30;;;8.80;51.30;;;;;;6099166;23;20384;-78
2021/03/02 07:45:13;;;;;;;5.65;2.47;;;8.90;51.10;;;;;;6125270;23;20813;-78
2021/03/02 07:47:43;;;;;;;6.07;2.40;;;9.10;51.00;;;;;;6099051;23;20479;-78
2021/03/02 07:50:25;;;;;;;3.63;2.10;;;9.20;49.80;;;;;;6099302;23;20416;-78
2021/03/02 07:53:23;;;;;;;4.88;2.20;;;9.30;49.50;;;;;;6099177;23;20388;-78
2021/03/02 07:56:10;;;;;;;4.10;2.00;;;;;;;;;;6098984;23;20399;-78
2021/03/02 07:58:36;;;;;;;4.43;2.30;;;9.60;48.50;;;;;;6098917;23;20379;-78
2021/03/02 08:01:18;;;;;;;6.63;2.30;;;9.70;48.90;;;;;;6098996;23;20384;-78
2021/03/02 08:03:45;;;;;;;4.07;2.60;;;9.80;49.10;;;;;;6118851;23;20398;-78
2021/03/02 08:06:33;;;;;;;5.50;2.65;;;10.00;47.90;;;;;;6127197;23;20853;-78
2021/03/02 08:09:18;;;;;;;4.20;2.40;;;10.30;52.90;;;;;;6128193;23;20551;-79
2021/03/02 08:11:44;;;;;;;4.15;2.30;;;10.40;46.60;;;;;;6128154;23;20375;-78
2021/03/02 08:14:29;;;;;;;5.35;2.50;;;10.60;46.70;;;;;;6128204;23;20371;-78
2021/03/02 08:16:58;;;;;;;3.67;2.42;;;10.70;46.90;;;;;;6128280;23;20915;-79
2021/03/02 08:19:31;;;;;;;4.55;2.50;;;;;;;;;;6128244;23;20386;-78
2021/03/02 08:21:58;;;;;;;5.22;2.72;;;11.00;47.20;;;;;;6128252;23;20421;-78
2021/03/02 08:24:48;;;;;;;6.32;2.47;;;11.20;46.10;;;;;;6128274;23;20470;-77
2021/03/02 08:27:14;;;;;;;5.25;2.78;;;;;;;;;;6128301;23;20386;-78
2021/03/02 08:29:48;;;;;;;5.90;3.03;;;11.50;44.30;;;;;;6128216;23;20424;-77
2021/03/02 08:32:14;;;;;;;6.93;3.10;;;;;;;;;;6128204;23;20544;-78
2021/03/02 08:34:40;;;;;;;5.90;3.65;;;11.60;44.20;;;;;;6128037;23;20367;-77
2021/03/02 08:37:07;;;;;;;6.80;3.20;;;11.70;45.30;;;;;;6128165;23;20743;-77
2021/03/02 08:39:33;;;;;;;6.03;2.90;;;11.70;44.20;;;;;;6128198;23;20442;-78
2021/03/02 08:42:04;;;;;;;5.10;2.90;;;11.70;45.00;;;;;;6154251;23;20367;-78
2021/03/02 08:44:30;;;;;;;5.03;2.90;;;11.90;44.80;;;;;;6128228;23;20413;-77
2021/03/02 08:46:57;;;;;;;4.72;2.80;;;;;;;;;;6128247;23;20374;-78
2021/03/02 08:49:24;;;;;;;5.63;3.08;;;12.10;43.50;;;;;;6128197;23;20665;-78
2021/03/02 08:51:57;;;;;;;4.85;2.90;;;12.30;43.60;;;;;;6128218;23;20375;-78
2021/03/02 08:54:24;;;;;;;5.72;3.17;;;12.30;42.60;;;;;;6128110;23;20379;-78
2021/03/02 08:56:59;;;;;;;4.80;3.42;;;12.60;43.40;;;;;;6154181;23;20716;-78
2021/03/02 08:59:29;;;;;;;3.97;3.13;;;12.50;42.60;;;;;;6128053;23;20383;-78
2021/03/02 09:01:56;;;;;;;4.85;2.60;;;12.80;42.10;;;;;;6128093;23;20379;-78
2021/03/02 09:04:24;;;;;;;3.85;2.20;;;12.90;41.60;;;;;;6071137;23;1361452;-78
2021/03/02 09:06:52;;;;;;;5.50;3.23;;;13.00;41.90;;;;;;6129872;23;20377;-77
2021/03/02 09:09:19;;;;;;;5.78;3.15;;;12.80;41.60;;;;;;6155882;23;20367;-78
2021/03/02 09:11:47;;;;;;;4.87;3.03;;;12.90;40.60;;;;;;6129884;23;20382;-77
2021/03/02 09:14:15;;;;;;;4.10;2.72;;;12.90;41.00;;;;;;6129689;23;20470;-78
2021/03/02 09:16:44;;;;;;;4.90;2.70;;;13.20;41.90;;;;;;6129620;23;20397;-78
2021/03/02 09:19:21;;;;;;;6.75;2.80;;;13.40;39.90;;;;;;6129464;23;20375;-78
2021/03/02 09:21:54;;;;;;;4.78;2.58;;;13.50;40.60;;;;;;6129737;23;20901;-78
2021/03/02 09:24:22;;;;;;;5.38;2.70;;;13.60;42.00;;;;;;6129857;23;20382;-78
2021/03/02 09:26:58;;;;;;;3.67;2.33;;;13.80;40.90;;;;;;6129540;23;20382;-78
2021/03/02 09:29:26;;;;;;;5.18;2.58;;;14.00;37.90;;;;;;6129777;23;20465;-79
2021/03/02 09:31:56;;;;;;;5.10;2.40;;;14.10;39.80;;;;;;6129633;23;20430;-78
2021/03/02 09:34:32;;;;;;;4.65;2.55;;;14.10;39.80;;;;;;6129626;23;20382;-78
2021/03/02 09:37:03;;;;;;;5.20;2.33;;;14.30;39.20;;;;;;6129554;23;20399;-78
2021/03/02 09:39:29;;;;;;;4.07;2.40;;;14.40;40.00;;;;;;6129565;23;20386;-78
2021/03/02 09:41:56;;;;;;;6.53;3.30;;;14.50;42.30;;;;;;6129565;23;20382;-78
2021/03/02 09:44:25;;;;;;;4.88;2.88;;;14.40;39.60;;;;;;6129666;23;20474;-78
2021/03/02 09:46:52;;;;;;;3.97;2.50;;;;;;;;;;6129340;23;20402;-79
2021/03/02 09:49:36;;;;;;;5.50;2.42;;;14.60;38.40;;;;;;6155584;23;20355;-78
2021/03/02 09:52:03;;;;;;;4.45;2.47;;;14.90;40.70;;;;;;6129169;23;20756;-78
2021/03/02 09:54:29;;;;;;;4.80;2.40;;;14.90;40.60;;;;;;6129485;23;20437;-78
2021/03/02 09:56:57;;;;;;;4.30;2.40;;;15.10;38.90;;;;;;6155460;23;20363;-78
2021/03/02 09:59:23;;;;;;;5.88;2.67;;;;;;;;;;6129385;23;20437;-78
2021/03/02 10:01:50;;;;;;;3.63;2.15;;;;;;;;;;6129290;23;20371;-78
2021/03/02 10:04:17;;;;;;;4.38;2.60;;;;;;;;;;6128987;23;20437;-78
2021/03/02 10:06:43;;;;;;;5.28;3.35;;;;;;;;;;6129224;23;20835;-78
2021/03/02 10:09:20;;;;;;;4.77;2.80;;;;;;;;;;6129118;23;20462;-78
2021/03/02 10:11:46;;;;;;;6.15;3.63;;;;;;;;;;6155366;23;20811;-78
2021/03/02 10:14:13;;;;;;;7.13;4.00;;;;;;;;;;6129174;23;20367;-78
2021/03/02 10:16:41;;;;;;;5.75;2.92;;;;;;;;;;6129261;23;20410;-78
2021/03/02 10:19:16;;;;;;;10.43;6.57;;;15.30;38.10;;;;;;6129057;23;20371;-78
2021/03/02 10:21:43;;;;;;;14.20;9.70;;;;;;;;;;6129231;23;20379;-78
2021/03/02 10:24:09;;;;;;;19.42;15.77;;;;;;;;;;6129059;23;20363;-78
2021/03/02 10:26:36;;;;;;;13.48;8.75;;;15.30;76.30;;;;;;6128971;23;20739;-78
2021/03/02 10:29:08;;;;;;;13.18;9.40;;;15.40;45.50;;;;;;6128841;23;20732;-78
2021/03/02 10:31:39;;;;;;;13.30;7.78;;;14.90;44.10;;;;;;6128805;23;20378;-78
2021/03/02 10:34:06;;;;;;;11.27;6.80;;;;;;;;;;6129145;23;20394;-78
2021/03/02 10:36:34;;;;;;;10.40;7.17;;;14.90;45.10;;;;;;6128807;23;20425;-79
2021/03/02 10:39:02;;;;;;;13.75;7.18;;;15.20;44.20;;;;;;6128951;23;20901;-78
2021/03/02 10:41:29;;;;;;;10.98;7.20;;;15.40;43.30;;;;;;6129003;23;20700;-78
2021/03/02 10:43:56;;;;;;;12.55;6.95;;;15.40;43.90;;;;;;6128943;23;20379;-78
2021/03/02 10:46:24;;;;;;;13.25;7.72;;;15.00;44.00;;;;;;6128896;23;20371;-78
2021/03/02 10:48:52;;;;;;;13.98;7.72;;;15.10;45.30;;;;;;6128786;23;20388;-78
2021/03/02 10:51:18;;;;;;;12.98;6.95;;;15.40;43.90;;;;;;6128828;23;20465;-78
2021/03/02 10:53:44;;;;;;;11.13;6.95;;;;;;;;;;6128887;23;20417;-77
2021/03/02 10:56:10;;;;;;;11.93;6.93;;;;;;;;;;6128623;23;20543;-78
2021/03/02 10:58:36;;;;;;;12.30;7.47;;;15.60;43.50;;;;;;6154876;23;20735;-78
2021/03/02 11:01:03;;;;;;;11.20;6.78;;;15.10;43.30;;;;;;6128819;23;20383;-78
2021/03/02 11:03:29;;;;;;;10.82;6.60;;;15.20;44.20;;;;;;6136726;23;20872;-78
2021/03/02 11:05:56;;;;;;;13.40;6.97;;;;;;;;;;6099308;23;20450;-78
2021/03/02 11:08:23;;;;;;;10.88;6.85;;;;;;;;;;6099295;23;20373;-78
2021/03/02 11:10:50;;;;;;;9.07;5.82;;;15.40;43.60;;;;;;6099348;23;20496;-78
2021/03/02 11:13:17;;;;;;;10.20;5.70;;;16.00;40.00;;;;;;6099332;23;20388;-78
2021/03/02 11:15:43;;;;;;;9.20;5.63;;;16.00;41.00;;;;;;6099278;23;20447;-78
2021/03/02 11:18:10;;;;;;;8.37;5.37;;;16.00;40.10;;;;;;6125233;23;20365;-78
2021/03/02 11:20:37;;;;;;;7.43;4.55;;;15.80;40.70;;;;;;6099268;23;20413;-77
2021/03/02 11:23:05;;;;;;;7.35;4.10;;;15.70;38.60;;;;;;6099370;23;20459;-79
2021/03/02 11:25:31;;;;;;;7.50;4.60;;;15.90;38.40;;;;;;6099260;23;20742;-78
2021/03/02 11:27:57;;;;;;;9.00;4.93;;;15.90;38.50;;;;;;6099249;23;20845;-78
2021/03/02 11:30:24;;;;;;;7.50;4.83;;;15.60;37.20;;;;;;6099205;23;20380;-78
2021/03/02 11:32:50;;;;;;;7.35;5.03;;;15.50;37.80;;;;;;6125185;23;20365;-78
2021/03/02 11:35:17;;;;;;;8.60;5.95;;;15.50;38.70;;;;;;6099164;23;20423;-78
2021/03/02 11:37:43;;;;;;;8.27;5.47;;;15.70;39.70;;;;;;6099286;23;20825;-78
2021/03/02 11:40:14;;;;;;;9.20;5.60;;;15.90;38.00;;;;;;6099260;23;20385;-78
2021/03/02 11:42:40;;;;;;;8.45;6.03;;;;;;;;;;6099808;23;20407;-78
2021/03/02 11:45:08;;;;;;;9.83;6.30;;;;;;;;;;6099010;23;20358;-78
2021/03/02 11:47:34;;;;;;;8.57;5.95;;;;;;;;;;6098909;23;20701;-78
2021/03/02 11:50:01;;;;;;;9.00;5.28;;;;;;;;;;6099204;23;20423;-79
2021/03/02 11:52:27;;;;;;;10.77;6.28;;;16.20;39.60;;;;;;6098970;23;20376;-78
2021/03/02 11:54:53;;;;;;;8.65;5.75;;;16.50;56.70;;;;;;6099173;23;20377;-78
2021/03/02 11:57:22;;;;;;;9.75;5.78;;;16.10;58.10;;;;;;6099090;23;20849;-78
2021/03/02 11:59:47;;;;;;;9.00;6.07;;;16.00;61.10;;;;;;6098920;23;20385;-78
2021/03/02 12:02:14;;;;;;;10.60;5.95;;;16.00;55.30;;;;;;6098543;23;20435;-79
2021/03/02 12:04:40;;;;;;;9.20;6.07;;;16.20;63.50;;;;;;6098960;23;20832;-78
2021/03/02 12:07:06;;;;;;;9.60;6.13;;;;;;;;;;6098723;23;20384;-78
2021/03/02 12:09:33;;;;;;;11.40;6.13;;;;;;;;;;6098632;23;20424;-78
2021/03/02 12:11:59;;;;;;;10.05;6.47;;;;;;;;;;6098666;23;20380;-78
2021/03/02 12:14:26;;;;;;;8.75;5.72;;;;;;;;;;6098839;23;20377;-79
2021/03/02 12:16:52;;;;;;;9.35;5.93;;;;;;;;;;6098408;23;20391;-78
2021/03/02 12:19:18;;;;;;;9.00;6.20;;;;;;;;;;6124741;23;20821;-78
2021/03/02 12:21:44;;;;;;;10.03;5.70;;;16.60;62.80;;;;;;6098510;23;20415;-78
2021/03/02 12:24:11;;;;;;;42.70;32.13;;;16.30;36.50;;;;;;6098396;23;20385;-79
2021/03/02 12:26:37;;;;;;;8.68;5.80;;;16.40;36.80;;;;;;6098609;23;20467;-78
2021/03/02 12:29:03;;;;;;;9.93;6.57;;;16.50;38.00;;;;;;6098226;23;20384;-79
2021/03/02 12:31:30;;;;;;;11.90;6.88;;;16.40;38.60;;;;;;6098340;23;20399;-79
2021/03/02 12:33:56;;;;;;;8.82;5.65;;;16.70;37.80;;;;;;6098103;23;20399;-79
2021/03/02 12:36:23;;;;;;;10.15;8.13;;;;;;;;;;6098204;23;20388;-78
2021/03/02 12:38:52;;;;;;;10.38;8.10;;;16.80;38.10;;;;;;6098456;23;20371;-79
2021/03/02 12:41:18;;;;;;;9.43;5.85;;;17.50;36.70;;;;;;6098497;23;20836;-79
2021/03/02 12:43:44;;;;;;;9.90;7.77;;;17.60;39.20;;;;;;6098753;23;20434;-78
2021/03/02 12:46:10;;;;;;;12.43;10.53;;;17.90;37.50;;;;;;6098201;23;20380;-79
2021/03/02 12:48:37;;;;;;;9.85;6.68;;;17.40;35.60;;;;;;6098204;23;20380;-78
2021/03/02 12:51:04;;;;;;;9.77;5.88;;;17.20;37.40;;;;;;6097931;23;20412;-79
2021/03/02 12:53:30;;;;;;;9.82;6.05;;;17.50;38.10;;;;;;6124750;23;20361;-78
2021/03/02 12:55:56;;;;;;;9.73;6.35;;;17.60;37.60;;;;;;6099855;23;20444;-78
2021/03/02 12:58:22;;;;;;;8.65;5.90;;;17.50;36.40;;;;;;6099991;23;20467;-79
2021/03/02 13:00:47;;;;;;;9.75;6.65;;;17.40;37.30;;;;;;6099881;23;20423;-78
2021/03/02 13:03:14;;;;;;;9.55;7.05;;;17.80;37.90;;;;;;6109362;23;20384;-75
2021/03/02 13:05:42;;;;;;;10.07;5.90;;;17.90;36.60;;;;;;6124976;23;20411;-78
2021/03/02 13:08:09;;;;;;;11.00;6.85;;;17.60;37.20;;;;;;6124642;23;20392;-78
2021/03/02 13:10:35;;;;;;;11.45;6.82;;;17.30;37.70;;;;;;6124351;23;20399;-77
2021/03/02 13:13:01;;;;;;;12.15;6.60;;;17.00;37.40;;;;;;6124743;23;20388;-76